KERI/ERI METAR and TAF weather

Enter ICAO airport designator
Station Type Date Time Source
KERI METAR 2019/02/20 23:00 UTC NOAA

KERI 202300Z 15013G21KT 9SM -RA FEW012 SCT025 OVC034 02/00 A2986 RMK AO2 P0000 T00220000


Station Type Date Time Source
KERI Decoded METAR 2019/02/20 23:00 UTC NOAA

ERIE INTERNATIONAL AIRPORT, PA, United States (KERI) 42-05N 080-11W 222M
Feb 20, 2019 - 06:00 PM EST / 2019.02.20 2300 UTC
Wind: from the SSE (150 degrees) at 15 MPH (13 KT) gusting to 24 MPH (21 KT):0
Visibility: 9 mile(s):0
Sky conditions: overcast
Weather: light rain
Precipitation last hour: A trace
Temperature: 36.0 F (2.2 C)
Dew Point: 32.0 F (0.0 C)
Relative Humidity: 85%
Pressure (altimeter): 29.86 in. Hg (1011 hPa)
ob: KERI 202300Z 15013G21KT 9SM -RA FEW012 SCT025 OVC034 02/00 A2986 RMK AO2 P0000 T00220000
cycle: 23

Station Type Date Time Source
KERI TAF 2019/02/20 21:06 UTC NOAA

TAF
AMD KERI 202105Z 2021/2118 15012G20KT P6SM OVC020
FM210400 18017G26KT 4SM -RA BR OVC008
FM210700 23014G22KT P6SM OVC010
FM211600 25017G26KT P6SM BKN020


Example: see airport list